Nambucca Heads, Australia
Current Conditions -  °F | °C
As of 1:30 PM on Saturday 29 Nov 2014 (Local Time) from YCFS Reporting Station
Clear Clear  
Wind Chill: 75°   Ceiling: Unl
Heat Index: 75°   Visibility: 6mi
Dew Point: 57°   Wind: 20mph
Humidity: 53%   Direction: 40°NE
Pressure: 30.06"   Gusts: NA
Location:  30.64°S, 153°E
Report Text: YCFS 290230Z AUTO 04017KT 9999 // NCD 24/14 Q1018
Loading
Personal Weather Stations






























Interactive Weather Map New forecast layout! Learn more

10-Day Weather Forecast

Advertisements
Track Severe Weather on mobile